Time;durP1;ratioP1;P1;durP2;ratioP2;P2;SDS_P1;SDS_P2;PMS_P1;PMS_P2;Temp;Humidity;BMP_temperature;BMP_pressure;BME280_temperature;BME280_humidity;BME280_pressure;Samples;Min_cycle;Max_cycle;Signal;HPM_P1;HPM_P2
2021/10/11 03:39:39;;;;;;;32.70;17.20;;;;;;;3.55;69.37;101388.33;4400609;57;1134879;-84
2021/10/11 03:44:45;;;;;;;32.75;15.95;;;;;;;3.53;69.51;101394.06;4472777;58;1139008;-85
2021/10/11 03:49:50;;;;;;;34.38;16.30;;;;;;;3.35;69.27;101381.19;4520857;57;1140779;-84
2021/10/11 03:54:57;;;;;;;32.78;16.57;;;;;;;3.30;69.80;101371.33;4560742;57;1139228;-83
2021/10/11 04:00:04;;;;;;;34.17;17.63;;;;;;;3.30;69.91;101359.56;4555923;57;1139104;-84
2021/10/11 04:05:11;;;;;;;40.53;19.97;;;;;;;3.33;69.86;101354.23;4568025;57;1139162;-84
2021/10/11 04:10:25;;;;;;;44.13;21.17;;;;;;;3.36;70.02;101344.95;4546422;57;1139366;-84
2021/10/11 04:15:25;;;;;;;44.40;23.43;;;;;;;3.27;69.62;101346.59;4544825;57;1139148;-83
2021/10/11 04:20:32;;;;;;;41.94;22.28;;;;;;;3.20;69.94;101329.88;4566251;57;1139011;-84
2021/10/11 04:25:38;;;;;;;50.03;24.17;;;;;;;3.09;69.91;101323.23;4546273;57;1139273;-83
2021/10/11 04:30:45;;;;;;;42.20;20.17;;;;;;;3.08;70.10;101308.91;4528812;57;1139138;-84
2021/10/11 04:35:52;;;;;;;40.50;20.40;;;;;;;3.08;70.04;101307.60;4556727;57;1139261;-84
2021/10/11 04:40:58;;;;;;;42.08;20.92;;;;;;;2.95;69.72;101316.77;4576787;57;1139055;-84
2021/10/11 04:46:04;;;;;;;37.75;19.65;;;;;;;2.88;70.44;101320.50;4557654;57;1139291;-84
2021/10/11 04:51:10;;;;;;;40.90;21.00;;;;;;;2.83;70.52;101316.73;4466826;57;1139065;-84
2021/10/11 04:56:17;;;;;;;53.17;22.40;;;;;;;2.79;70.70;101306.82;4437058;58;1139174;-84
2021/10/11 05:01:23;;;;;;;47.53;19.40;;;;;;;2.74;70.79;101307.90;4439158;57;1139238;-82
2021/10/11 05:06:29;;;;;;;69.47;30.32;;;;;;;2.69;70.66;101287.14;4490537;57;1138924;-86
2021/10/11 05:11:35;;;;;;;81.27;37.43;;;;;;;2.68;70.93;101279.36;4466110;57;1139416;-84
2021/10/11 05:16:41;;;;;;;69.55;25.08;;;;;;;2.68;71.09;101288.50;4485396;57;1221897;-82
2021/10/11 05:21:47;;;;;;;61.50;21.60;;;;;;;2.67;71.38;101272.42;5083375;58;21177;-85
2021/10/11 05:26:55;;;;;;;49.93;20.47;;;;;;;2.65;71.38;101269.00;5083120;58;21191;-84
2021/10/11 05:32:04;;;;;;;57.00;21.03;;;;;;;2.66;71.56;101282.02;5083110;58;21198;-84
2021/10/11 05:37:13;;;;;;;51.97;20.47;;;;;;;2.69;71.75;101284.53;5079685;58;21121;-83
2021/10/11 05:42:23;;;;;;;52.80;24.70;;;;;;;2.80;72.27;101286.78;5079491;58;21232;-87
2021/10/11 05:47:32;;;;;;;53.73;25.77;;;;;;;2.86;72.21;101278.75;5008325;59;21216;-84
2021/10/11 05:52:41;;;;;;;55.30;28.90;;;;;;;2.92;72.35;101280.28;5042039;57;21183;-85
2021/10/11 05:57:49;;;;;;;48.63;24.07;;;;;;;3.03;73.06;101272.50;5011693;57;21865;-85
2021/10/11 06:02:54;;;;;;;48.57;23.67;;;;;;;3.22;73.45;101279.22;4962462;59;21190;-84
2021/10/11 06:19:09;;;;;;;454.80;157.63;;;;;;;3.93;75.19;101277.06;4572539;64;21232;-88
2021/10/11 06:24:15;;;;;;;121.57;44.47;;;;;;;4.20;75.62;101270.76;4559510;63;21308;-89
2021/10/11 06:35:14;;;;;;;57.27;25.90;;;;;;;4.55;76.12;101269.81;5405410;54;21455;-85
2021/10/11 06:40:19;;;;;;;45.87;20.23;;;;;;;4.60;75.73;101256.91;5347801;55;21169;-86
2021/10/11 06:45:26;;;;;;;37.63;19.20;;;;;;;4.75;76.37;101274.22;5291358;56;22558;-85
2021/10/11 06:56:28;;;;;;;43.20;21.43;;;;;;;4.90;77.43;101260.47;5225599;55;21266;-90
2021/10/11 07:01:42;;;;;;;;;;;;;;;;;;;;;
2021/10/11 07:23:31;;;;;;;49.87;20.27;;;;;;;5.43;77.27;101266.48;5450187;53;21081;-88
2021/10/11 07:34:27;;;;;;;43.40;19.53;;;;;;;5.55;77.25;101254.98;5360027;55;21152;-85
2021/10/11 07:39:34;;;;;;;46.57;20.03;;;;;;;5.62;76.81;101253.80;5369919;55;22050;-85
2021/10/11 07:44:41;;;;;;;47.37;23.50;;;;;;;5.73;76.86;101241.48;5360702;54;21569;-85
2021/10/11 07:49:47;;;;;;;48.83;20.70;;;;;;;5.83;77.03;101233.56;5376163;54;21128;-85
2021/10/11 08:00:25;;;;;;;37.00;17.40;;;;;;;6.01;77.23;101218.77;5126763;57;21206;-86
2021/10/11 08:05:41;;;;;;;46.10;20.10;;;;;;;6.15;76.77;101216.33;5149839;57;21154;-86
2021/10/11 08:22:42;;;;;;;29.47;14.87;;;;;;;6.44;76.65;101192.57;5171273;56;21623;-84
2021/10/11 08:28:14;;;;;;;45.63;19.43;;;;;;;6.53;76.84;101201.33;5198529;55;21154;-84
2021/10/11 08:33:18;;;;;;;42.53;20.87;;;;;;;6.55;76.62;101190.75;5147460;56;21158;-85
2021/10/11 08:38:33;;;;;;;45.67;19.13;;;;;;;6.60;76.47;101193.51;5118196;56;22116;-89
2021/10/11 08:55:53;;;;;;;39.08;19.67;;;;;;;6.82;76.87;101201.17;4485602;65;21249;-88
2021/10/11 09:14:04;;;;;;;36.20;15.53;;;;;;;6.97;77.07;101188.55;5383873;54;21467;-86
2021/10/11 09:19:15;;;;;;;34.60;18.67;;;;;;;7.10;76.93;101205.84;5313729;54;21170;-86
2021/10/11 09:24:23;;;;;;;31.50;13.10;;;;;;;7.17;76.76;101176.98;5408922;54;21117;-90
2021/10/11 09:29:39;;;;;;;35.47;17.90;;;;;;;7.23;76.74;101173.16;5363656;54;21198;-91
2021/10/11 09:34:54;;;;;;;43.63;22.47;;;;;;;7.23;76.74;101173.16;5299446;55;21247;-85
2021/10/11 09:46:35;;;;;;;31.62;15.78;;;;;;;7.40;76.10;101174.43;4957878;59;21204;-86
2021/10/11 09:51:44;;;;;;;27.10;15.30;;;;;;;7.49;76.07;101164.70;4944422;58;21157;-86
2021/10/11 09:56:50;;;;;;;34.37;17.30;;;;;;;7.57;76.33;101166.94;4959131;58;21268;-85
2021/10/11 10:01:59;;;;;;;47.10;22.20;;;;;;;7.71;75.72;101148.59;5076288;57;21243;-85
2021/10/11 10:12:25;;;;;;;58.67;25.43;;;;;;;7.94;75.35;101157.39;5041286;58;21166;-89
2021/10/11 10:17:36;;;;;;;43.10;21.37;;;;;;;7.94;75.35;101157.39;5281339;54;21190;-88
2021/10/11 10:22:47;;;;;;;53.00;21.83;;;;;;;8.08;76.05;101144.28;5328980;54;21139;-87
2021/10/11 10:27:55;;;;;;;43.17;20.03;;;;;;;8.15;75.57;101112.30;5374178;54;21555;-86
2021/10/11 10:33:06;;;;;;;35.53;18.60;;;;;;;8.32;74.68;101111.73;5305687;55;21115;-86
2021/10/11 10:38:21;;;;;;;44.60;21.00;;;;;;;8.35;74.57;101100.16;5300458;54;21170;-87
2021/10/11 10:43:27;;;;;;;44.67;21.53;;;;;;;8.40;74.75;101098.11;5344926;54;21086;-78
2021/10/11 10:48:33;;;;;;;43.47;21.83;;;;;;;8.57;74.71;101103.20;5277733;55;21127;-77
2021/10/11 10:54:20;;;;;;;;;;;;;;;;;;;;;
2021/10/11 11:05:28;;;;;;;49.50;24.67;;;;;;;9.09;74.40;101094.28;5441071;54;22033;-78
2021/10/11 11:10:38;;;;;;;43.80;20.20;;;;;;;9.12;73.60;101081.37;5348952;55;21177;-77
2021/10/11 11:15:52;;;;;;;34.57;18.83;;;;;;;9.15;73.72;101078.08;5328790;55;21198;-77
2021/10/11 11:20:58;;;;;;;37.47;19.13;;;;;;;9.31;73.46;101074.00;5337259;55;21598;-77
2021/10/11 11:26:06;;;;;;;43.20;19.40;;;;;;;9.45;73.26;101058.60;5314545;55;21139;-77
2021/10/11 11:31:16;;;;;;;33.10;16.63;;;;;;;9.73;73.46;101054.54;5329638;55;21144;-92
2021/10/11 11:36:38;;;;;;;;;;;;;;;;;;;;;
2021/10/11 11:42:07;;;;;;;;;;;;;;;;;;;;;
2021/10/11 11:47:12;;;;;;;33.73;17.03;;;;;;;10.24;70.37;101033.52;5344939;55;21223;-88
2021/10/11 11:52:52;;;;;;;;;;;;;;;;;;;;;
2021/10/11 11:57:58;;;;;;;29.10;14.60;;;;;;;10.55;69.75;101045.02;5337364;55;21142;-90
2021/10/11 12:03:05;;;;;;;32.47;15.30;;;;;;;10.93;70.40;101046.80;5347136;55;21205;-90
2021/10/11 12:08:14;;;;;;;29.83;15.67;;;;;;;11.31;68.55;101045.84;5282093;55;21183;-87
2021/10/11 12:13:19;;;;;;;28.17;14.00;;;;;;;11.34;66.55;101033.72;5238811;56;21246;-84
2021/10/11 12:18:38;;;;;;;24.60;15.13;;;;;;;11.34;67.30;101021.32;5252219;55;21108;-85
2021/10/11 12:23:45;;;;;;;23.40;13.77;;;;;;;11.32;67.67;101021.91;5306898;55;21121;-85
2021/10/11 12:28:57;;;;;;;31.33;14.10;;;;;;;11.20;66.16;101011.73;5328959;55;21164;-85
2021/10/11 12:34:13;;;;;;;27.95;16.67;;;;;;;11.08;67.09;101017.06;5309196;55;21117;-83
2021/10/11 12:39:23;;;;;;;29.20;15.13;;;;;;;10.98;67.44;101018.69;5291983;55;21115;-84
2021/10/11 12:44:43;;;;;;;31.67;15.70;;;;;;;10.91;68.08;101011.17;5262954;55;22725;-82
2021/10/11 12:49:55;;;;;;;28.93;15.50;;;;;;;10.92;68.46;101014.19;5277985;55;21756;-83
2021/10/11 12:55:17;;;;;;;27.22;14.83;;;;;;;10.99;68.63;101013.30;5287467;55;21164;-82
2021/10/11 13:00:23;;;;;;;25.47;13.57;;;;;;;11.03;69.16;101004.62;5327991;55;21638;-84
2021/10/11 13:05:29;;;;;;;25.33;15.57;;;;;;;11.10;69.25;101005.89;5304098;55;21188;-84
2021/10/11 13:10:34;;;;;;;38.13;19.67;;;;;;;11.08;69.34;100991.92;5282283;55;21217;-83
2021/10/11 13:15:40;;;;;;;30.23;17.00;;;;;;;11.03;69.64;100999.34;5287166;55;21108;-83
2021/10/11 13:20:46;;;;;;;30.13;16.57;;;;;;;10.94;70.32;100998.20;5279425;55;21661;-83
2021/10/11 13:25:52;;;;;;;30.73;16.70;;;;;;;10.85;70.93;100992.23;5278277;55;21140;-87
2021/10/11 14:30:13;;;;;;;37.67;21.90;;;;;;;10.91;74.88;100968.84;5255221;56;21136;-82
2021/10/11 16:06:39;;;;;;;;;;;;;;;9.86;79.00;100995.13;5177827;57;21202;-80
2021/10/11 16:11:45;;;;;;;51.93;24.50;;;;;;;9.79;78.96;101004.40;5188731;57;20705;-82
2021/10/11 16:16:51;;;;;;;49.53;25.37;;;;;;;9.73;78.85;100993.78;5189407;57;21650;-81
2021/10/11 16:21:57;;;;;;;48.57;27.17;;;;;;;9.67;78.69;100998.61;5187741;57;21502;-82
2021/10/11 16:27:03;;;;;;;50.47;26.30;;;;;;;9.61;78.56;101004.32;5187920;57;21525;-81
2021/10/11 16:32:10;;;;;;;53.03;26.47;;;;;;;9.52;78.54;101003.96;5106627;57;21283;-85
2021/10/11 16:37:15;;;;;;;57.63;29.80;;;;;;;9.44;78.50;101004.95;5123792;57;22496;-85
2021/10/11 16:42:21;;;;;;;54.10;34.87;;;;;;;9.38;78.48;101008.45;5226982;55;21184;-84
2021/10/11 16:47:27;;;;;;;85.90;34.73;;;;;;;9.32;78.51;100995.66;5302717;55;21618;-83
2021/10/11 16:52:32;;;;;;;168.77;64.73;;;;;;;9.22;78.22;101000.67;5238599;55;21147;-83
2021/10/11 16:57:41;;;;;;;203.13;112.00;;;;;;;9.14;78.33;100997.22;5313381;55;22093;-84
2021/10/11 17:02:46;;;;;;;164.53;89.23;;;;;;;9.21;78.91;100996.80;5324378;55;21144;-83
2021/10/11 17:07:54;;;;;;;132.93;71.80;;;;;;;9.31;78.79;100999.25;5333488;55;21180;-84
2021/10/11 17:12:59;;;;;;;119.57;62.43;;;;;;;9.31;78.45;100990.86;5337391;55;21139;-83
2021/10/11 17:18:06;;;;;;;103.90;56.33;;;;;;;9.31;78.17;100986.90;5337152;54;21147;-83
2021/10/11 17:23:12;;;;;;;106.40;55.10;;;;;;;9.27;77.85;100982.75;5129696;55;1139034;-84
2021/10/11 17:28:18;;;;;;;119.47;55.43;;;;;;;9.23;77.33;100977.77;5234935;56;21190;-83
2021/10/11 17:34:01;;;;;;;115.53;57.03;;;;;;;9.16;77.00;100976.02;5095156;58;21202;-81
2021/10/11 17:39:12;;;;;;;102.67;49.50;;;;;;;9.07;76.88;100968.20;5079755;57;21162;-82
2021/10/11 17:44:14;;;;;;;105.63;57.53;;;;;;;9.02;77.19;100970.74;5094274;57;21583;-81
2021/10/11 17:49:20;;;;;;;120.33;69.03;;;;;;;8.98;77.47;100967.48;5072834;58;21611;-82
2021/10/11 17:54:35;;;;;;;126.87;70.13;;;;;;;8.91;77.08;100964.84;5013623;59;21211;-82
2021/10/11 17:59:37;;;;;;;157.90;88.93;;;;;;;8.77;76.48;100967.51;5012833;58;21166;-82
2021/10/11 18:04:43;;;;;;;193.40;99.73;;;;;;;8.68;76.42;100966.30;5013523;59;21115;-83
2021/10/11 18:09:49;;;;;;;184.83;90.10;;;;;;;8.64;76.44;100970.06;5062396;58;21261;-82
2021/10/11 18:14:56;;;;;;;198.13;87.70;;;;;;;8.60;76.55;100974.30;5065900;58;21178;-82
2021/10/11 18:20:04;;;;;;;194.17;92.33;;;;;;;8.56;76.80;100957.81;5091538;57;21691;-82
2021/10/11 18:25:11;;;;;;;183.17;84.47;;;;;;;8.52;76.71;100960.30;5150879;57;21112;-83
2021/10/11 18:30:18;;;;;;;95.23;54.70;;;;;;;8.44;76.61;100952.84;5151161;57;21119;-81
2021/10/11 18:35:25;;;;;;;51.50;26.60;;;;;;;8.28;76.76;100944.63;5151272;57;21163;-82
2021/10/11 18:40:31;;;;;;;46.80;26.60;;;;;;;8.10;77.96;100947.43;5151126;57;21174;-82
2021/10/11 18:45:37;;;;;;;60.90;27.47;;;;;;;7.94;78.92;100937.94;5066754;57;21174;-82
2021/10/11 18:50:42;;;;;;;63.23;28.20;;;;;;;7.87;79.73;100933.49;5002729;57;1135058;-81
2021/10/11 18:56:03;;;;;;;;;;;;;;;;;;;;;
2021/10/11 19:01:09;;;;;;;58.27;24.53;;;;;;;7.84;81.42;100913.92;4819869;59;1140629;-81
2021/10/11 19:06:22;;;;;;;92.30;31.80;;;;;;;7.82;82.54;100907.05;4997803;57;1141189;-82
2021/10/11 19:11:27;;;;;;;55.50;24.97;;;;;;;7.80;83.65;100902.34;5052241;57;1140475;-81
2021/10/11 19:16:41;;;;;;;72.07;27.00;;;;;;;7.75;85.00;100899.53;5091423;56;1141144;-81
2021/10/11 19:21:49;;;;;;;50.70;24.53;;;;;;;7.71;85.26;100898.02;5054001;58;1141172;-84
2021/10/11 19:26:54;;;;;;;51.87;25.43;;;;;;;7.65;85.64;100894.42;5030856;57;1141196;-80
2021/10/11 19:32:02;;;;;;;48.93;24.23;;;;;;;7.63;85.33;100896.32;5029448;58;1141112;-83
2021/10/11 19:37:08;;;;;;;42.57;21.17;;;;;;;7.58;86.23;100894.42;5049261;57;1141037;-84
2021/10/11 19:42:13;;;;;;;52.03;25.30;;;;;;;7.55;87.15;100891.11;4964518;58;1141070;-84
2021/10/11 19:47:19;;;;;;;47.20;21.87;;;;;;;7.51;86.95;100885.64;4975210;58;1141025;-85
2021/10/11 19:52:26;;;;;;;52.83;28.53;;;;;;;7.52;87.19;100878.98;4987259;58;1141037;-83
2021/10/11 19:57:31;;;;;;;28.80;17.03;;;;;;;7.45;88.31;100872.87;5052788;57;1141034;-84
2021/10/11 20:02:40;;;;;;;55.13;25.33;;;;;;;7.43;89.55;100876.90;5052168;57;1141062;-84
2021/10/11 20:07:46;;;;;;;50.00;22.43;;;;;;;7.43;90.35;100869.47;5015451;58;1141363;-82
2021/10/11 20:12:52;;;;;;;61.93;25.63;;;;;;;7.45;92.57;100866.29;5028778;57;1141124;-85
2021/10/11 20:17:58;;;;;;;79.93;31.23;;;;;;;7.47;92.48;100855.20;5015255;57;1141058;-88
2021/10/11 20:23:04;;;;;;;102.90;40.47;;;;;;;7.52;93.78;100860.55;5051181;58;1141087;-85
2021/10/11 20:28:10;;;;;;;58.30;28.90;;;;;;;7.62;91.81;100867.45;5044451;58;1143390;-87
2021/10/11 20:33:16;;;;;;;45.87;22.57;;;;;;;7.71;91.15;100858.99;5049076;57;1141113;-85
2021/10/11 20:38:22;;;;;;;40.73;21.50;;;;;;;7.83;90.87;100863.51;5048493;57;1140951;-84
2021/10/11 20:43:28;;;;;;;55.10;25.23;;;;;;;7.86;90.88;100858.06;5019450;57;1141048;-87
2021/10/11 20:48:34;;;;;;;57.13;25.17;;;;;;;7.92;90.61;100852.91;5040394;57;1141189;-85
2021/10/11 20:53:40;;;;;;;50.43;23.23;;;;;;;7.94;90.93;100843.97;5038877;57;1140995;-85
2021/10/11 20:58:46;;;;;;;59.53;24.23;;;;;;;7.98;92.62;100840.19;5039496;57;1141181;-85
2021/10/11 21:03:52;;;;;;;69.70;26.33;;;;;;;8.03;92.75;100824.11;5061792;57;1141053;-86
2021/10/11 21:08:59;;;;;;;77.37;30.53;;;;;;;8.07;92.36;100823.83;5069381;57;1141057;-86
2021/10/11 21:14:05;;;;;;;32.97;17.37;;;;;;;8.13;92.15;100825.22;5078578;57;1141080;-85
2021/10/11 21:19:11;;;;;;;32.57;16.90;;;;;;;8.18;92.24;100823.16;5075242;57;1138895;-84
2021/10/11 21:24:17;;;;;;;38.27;18.10;;;;;;;8.21;92.17;100812.42;5057810;57;1139071;-85
2021/10/11 21:29:22;;;;;;;35.70;16.63;;;;;;;8.26;92.14;100802.42;5040571;58;1139163;-83
2021/10/11 21:34:28;;;;;;;38.63;16.17;;;;;;;8.25;92.13;100798.09;5100366;58;1138992;-84
2021/10/11 21:39:33;;;;;;;36.07;18.13;;;;;;;8.24;91.92;100791.62;5101113;58;1139147;-84
2021/10/11 21:44:39;;;;;;;52.27;34.70;;;;;;;8.22;92.48;100789.09;5102326;58;1139137;-86
2021/10/11 21:49:45;;;;;;;104.43;39.87;;;;;;;8.22;92.32;100788.24;5101899;57;1138966;-83
2021/10/11 21:54:51;;;;;;;46.90;21.97;;;;;;;8.21;92.11;100787.86;5038480;58;1141049;-87
2021/10/11 21:59:56;;;;;;;64.10;24.87;;;;;;;8.21;92.16;100782.13;5110626;57;1139046;-85
2021/10/11 22:05:02;;;;;;;37.63;17.33;;;;;;;8.23;92.13;100773.66;5134188;57;1138996;-83
2021/10/11 22:10:08;;;;;;;96.73;33.10;;;;;;;8.24;92.28;100752.95;5114642;57;1139050;-83
2021/10/11 22:15:14;;;;;;;68.93;27.60;;;;;;;8.24;92.52;100757.38;5071162;57;1139022;-83
2021/10/11 22:20:19;;;;;;;36.17;17.63;;;;;;;8.22;92.77;100761.42;5071492;57;1139114;-85
2021/10/11 22:25:26;;;;;;;35.53;17.23;;;;;;;8.22;93.60;100751.35;5071189;57;1138983;-88
2021/10/11 22:30:32;;;;;;;40.80;19.73;;;;;;;8.17;93.27;100751.64;5071476;57;1139079;-84
2021/10/11 22:35:40;;;;;;;52.63;21.93;;;;;;;8.15;94.18;100735.55;5071929;57;1139119;-86
2021/10/11 22:40:46;;;;;;;63.07;23.53;;;;;;;8.15;93.91;100741.66;5072001;57;1139117;-86
2021/10/11 22:45:52;;;;;;;37.67;17.60;;;;;;;8.15;93.80;100732.92;5071549;57;1139014;-84
2021/10/11 22:51:02;;;;;;;77.73;26.53;;;;;;;8.13;94.22;100724.64;5071423;57;1139021;-84
2021/10/11 22:56:07;;;;;;;123.30;41.17;;;;;;;8.15;93.58;100723.70;5071271;57;1137108;-85
2021/10/11 23:01:13;;;;;;;37.30;15.90;;;;;;;8.12;93.56;100724.73;5071323;57;1143090;-83
2021/10/11 23:06:20;;;;;;;33.77;14.90;;;;;;;8.08;93.88;100716.20;5071345;57;1141035;-84
2021/10/11 23:11:26;;;;;;;29.13;15.23;;;;;;;8.09;94.05;100721.85;5071662;57;1141096;-85
2021/10/11 23:16:31;;;;;;;20.32;10.90;;;;;;;8.07;94.14;100714.52;5070697;57;1141051;-83
2021/10/11 23:21:37;;;;;;;26.30;11.27;;;;;;;8.05;94.04;100717.72;5070173;57;1141060;-84
2021/10/11 23:26:44;;;;;;;31.50;15.20;;;;;;;8.05;93.95;100712.45;5056905;57;1141180;-84
2021/10/11 23:31:50;;;;;;;18.30;9.57;;;;;;;8.02;94.26;100710.00;5070874;57;1141195;-83
2021/10/11 23:36:56;;;;;;;25.17;10.57;;;;;;;7.98;94.84;100708.97;5071556;57;1138916;-86
2021/10/11 23:42:04;;;;;;;20.65;10.50;;;;;;;7.94;94.73;100703.55;5071588;57;1141264;-85
2021/10/11 23:47:10;;;;;;;18.20;10.20;;;;;;;7.91;95.41;100698.00;5071713;57;1141146;-84
2021/10/11 23:52:17;;;;;;;17.77;10.00;;;;;;;7.92;95.72;100695.73;5137062;56;1141090;-84
2021/10/11 23:57:23;;;;;;;22.52;8.03;;;;;;;7.94;95.90;100688.59;5076068;57;1141083;-85
